Time;durP1;ratioP1;P1;durP2;ratioP2;P2;SDS_P1;SDS_P2;PMS_P1;PMS_P2;Temp;Humidity;BMP_temperature;BMP_pressure;BME280_temperature;BME280_humidity;BME280_pressure;Samples;Min_cycle;Max_cycle;Signal;HPM_P1;HPM_P2
2021/12/31 00:02:15;;;;;;;15.30;8.43;;;13.00;99.90;;;;;;5037757;28;20033;-70
2021/12/31 00:04:41;;;;;;;20.83;8.43;;;13.10;99.90;;;;;;5020712;28;20116;-69
2021/12/31 00:07:07;;;;;;;22.25;9.20;;;13.00;99.90;;;;;;5039449;28;20060;-70
2021/12/31 00:09:32;;;;;;;19.27;8.60;;;13.10;99.90;;;;;;5022577;28;20041;-69
2021/12/31 00:11:58;;;;;;;16.65;7.63;;;13.10;99.90;;;;;;5022770;28;20025;-70
2021/12/31 00:14:23;;;;;;;15.23;7.32;;;13.10;99.90;;;;;;5035996;28;20030;-69
2021/12/31 00:16:49;;;;;;;20.70;7.60;;;13.00;99.90;;;;;;5038645;28;20028;-70
2021/12/31 00:19:15;;;;;;;14.98;6.55;;;13.00;99.90;;;;;;5020280;28;20033;-69
2021/12/31 00:21:45;;;;;;;14.95;6.78;;;13.00;99.90;;;;;;5038626;28;20073;-70
2021/12/31 00:24:10;;;;;;;17.30;6.32;;;13.10;99.90;;;;;;5020791;28;20394;-69
2021/12/31 00:26:36;;;;;;;12.20;6.85;;;13.10;99.90;;;;;;5039028;28;20029;-69
2021/12/31 00:29:02;;;;;;;15.65;6.28;;;13.10;99.90;;;;;;5038961;28;20042;-70
2021/12/31 00:31:27;;;;;;;11.57;5.55;;;13.10;99.90;;;;;;5038633;28;20033;-69
2021/12/31 00:33:53;;;;;;;18.77;6.72;;;13.10;99.90;;;;;;5038397;28;20048;-70
2021/12/31 00:36:18;;;;;;;11.50;6.20;;;13.10;99.90;;;;;;5020582;28;20439;-70
2021/12/31 00:38:44;;;;;;;16.95;5.90;;;13.10;99.90;;;;;;5037888;28;20075;-70
2021/12/31 00:41:10;;;;;;;14.35;7.90;;;13.10;99.90;;;;;;5038175;28;20502;-71
2021/12/31 00:43:35;;;;;;;15.70;6.50;;;13.10;99.90;;;;;;5037703;28;20100;-70
2021/12/31 00:46:02;;;;;;;13.02;6.18;;;13.10;99.90;;;;;;5037460;28;20116;-70
2021/12/31 00:48:28;;;;;;;17.08;7.13;;;13.00;99.90;;;;;;5038417;28;20437;-70
2021/12/31 00:50:54;;;;;;;15.90;6.60;;;13.00;99.90;;;;;;5038227;28;20060;-70
2021/12/31 00:53:20;;;;;;;17.45;7.45;;;13.00;99.90;;;;;;5021378;28;20343;-69
2021/12/31 00:55:45;;;;;;;14.50;6.88;;;12.90;99.90;;;;;;5039491;28;20033;-71
2021/12/31 00:58:11;;;;;;;10.90;6.90;;;13.00;99.90;;;;;;5022147;28;20064;-70
2021/12/31 01:00:37;;;;;;;14.48;6.80;;;13.00;99.90;;;;;;5039717;28;20021;-69
2021/12/31 01:03:02;;;;;;;16.88;6.60;;;13.00;99.90;;;;;;5020888;28;20034;-69
2021/12/31 01:05:28;;;;;;;13.10;6.97;;;13.00;99.90;;;;;;5038251;28;20026;-71
2021/12/31 01:07:54;;;;;;;15.15;6.25;;;13.00;99.90;;;;;;5037168;28;20089;-71
2021/12/31 01:10:22;;;;;;;15.05;6.57;;;13.00;99.90;;;;;;5036549;28;20048;-70
2021/12/31 01:12:50;;;;;;;12.68;5.97;;;13.00;99.90;;;;;;5037227;28;20045;-71
2021/12/31 01:15:50;;;;;;;15.43;6.28;;;13.10;99.90;;;;;;5021385;28;20049;-71
2021/12/31 01:20:36;;;;;;;13.65;6.38;;;13.10;99.90;;;;;;5037042;28;19905;-70
2021/12/31 01:23:03;;;;;;;17.15;6.18;;;13.10;99.90;;;;;;5019029;28;20028;-72
2021/12/31 01:25:28;;;;;;;12.15;6.07;;;13.10;99.90;;;;;;5037088;28;20030;-71
2021/12/31 01:27:54;;;;;;;13.95;6.30;;;13.10;99.90;;;;;;5018572;28;20047;-70
2021/12/31 01:30:21;;;;;;;9.93;6.20;;;13.10;99.90;;;;;;5036639;28;20081;-71
2021/12/31 01:32:47;;;;;;;13.77;5.88;;;13.10;99.90;;;;;;5036010;28;20368;-70
2021/12/31 01:35:14;;;;;;;15.20;6.20;;;13.10;99.90;;;;;;5036099;28;20443;-71
2021/12/31 01:37:39;;;;;;;11.20;6.30;;;13.10;99.90;;;;;;5018962;28;20151;-71
2021/12/31 01:40:07;;;;;;;11.95;5.80;;;13.10;99.90;;;;;;5036738;28;20021;-71
2021/12/31 01:42:33;;;;;;;11.90;5.95;;;13.20;99.90;;;;;;5036634;28;20070;-71
2021/12/31 01:45:15;;;;;;;10.98;5.30;;;13.20;99.90;;;;;;5036890;28;20079;-70
2021/12/31 01:50:19;;;;;;;17.02;6.18;;;13.20;99.90;;;;;;5038062;28;20045;-69
2021/12/31 01:52:44;;;;;;;8.73;4.93;;;13.20;99.90;;;;;;5018808;28;20029;-70
2021/12/31 01:55:11;;;;;;;11.02;5.32;;;13.20;99.90;;;;;;5035903;28;20067;-70
2021/12/31 01:57:40;;;;;;;12.25;5.15;;;13.20;99.90;;;;;;5036473;28;20463;-69
2021/12/31 02:00:06;;;;;;;14.98;4.15;;;13.20;99.90;;;;;;5036525;28;20029;-71
2021/12/31 02:02:32;;;;;;;14.63;4.75;;;13.20;99.90;;;;;;5035914;28;20025;-69
2021/12/31 02:04:57;;;;;;;12.88;4.57;;;13.20;99.90;;;;;;5018392;28;20348;-70
2021/12/31 02:07:23;;;;;;;12.32;4.07;;;13.20;99.90;;;;;;5036528;28;20121;-70
2021/12/31 02:09:54;;;;;;;8.65;3.88;;;13.20;99.90;;;;;;5036278;28;20111;-71
2021/12/31 02:12:21;;;;;;;15.43;4.32;;;13.20;99.90;;;;;;5036307;28;20033;-70
2021/12/31 02:14:49;;;;;;;12.15;4.40;;;13.20;99.90;;;;;;5037705;28;20053;-70
2021/12/31 02:17:15;;;;;;;10.48;3.60;;;13.20;99.90;;;;;;5036858;28;20093;-70
2021/12/31 02:19:43;;;;;;;11.13;3.63;;;13.20;99.90;;;;;;5037281;28;20045;-70
2021/12/31 02:22:09;;;;;;;11.23;3.53;;;13.20;99.90;;;;;;5019489;28;20021;-70
2021/12/31 02:24:36;;;;;;;10.73;3.47;;;13.30;99.90;;;;;;5038637;28;20057;-70
2021/12/31 02:27:02;;;;;;;9.35;3.72;;;13.30;99.90;;;;;;5044380;28;20021;-70
2021/12/31 02:29:28;;;;;;;6.05;3.58;;;13.30;99.90;;;;;;5041141;28;20026;-69
2021/12/31 02:31:54;;;;;;;11.45;4.07;;;13.30;99.90;;;;;;5037945;28;20501;-69
2021/12/31 02:34:20;;;;;;;14.55;4.30;;;13.30;99.90;;;;;;5035822;28;20112;-69
2021/12/31 02:36:46;;;;;;;13.57;4.30;;;13.30;99.90;;;;;;5036179;28;20025;-71
2021/12/31 02:39:12;;;;;;;12.23;3.80;;;13.30;99.90;;;;;;5037525;28;20067;-68
2021/12/31 02:41:37;;;;;;;10.43;3.88;;;13.30;99.90;;;;;;5037698;28;20340;-70
2021/12/31 02:44:03;;;;;;;11.05;4.15;;;13.30;99.90;;;;;;5035473;28;20065;-70
2021/12/31 02:46:29;;;;;;;6.38;3.60;;;13.30;99.90;;;;;;5036167;28;20467;-70
2021/12/31 02:48:58;;;;;;;11.45;4.13;;;13.30;99.90;;;;;;5035828;28;20113;-70
2021/12/31 02:51:26;;;;;;;12.48;3.88;;;13.30;99.90;;;;;;5035642;28;20034;-69
2021/12/31 02:53:53;;;;;;;14.27;4.22;;;13.30;99.90;;;;;;5034662;28;20030;-68
2021/12/31 02:56:20;;;;;;;11.63;3.90;;;13.30;99.90;;;;;;5034867;28;20109;-70
2021/12/31 02:58:46;;;;;;;9.93;3.72;;;13.30;99.90;;;;;;5035451;28;20089;-70
2021/12/31 03:01:12;;;;;;;14.18;4.00;;;13.40;99.90;;;;;;5034880;28;20056;-71
2021/12/31 03:03:40;;;;;;;8.95;4.05;;;13.40;99.90;;;;;;5017843;28;20025;-70
2021/12/31 03:06:07;;;;;;;12.82;4.03;;;13.40;99.90;;;;;;5018091;28;20483;-70
2021/12/31 03:08:45;;;;;;;10.68;4.20;;;13.40;99.90;;;;;;5037000;28;20025;-72
2021/12/31 03:11:12;;;;;;;9.77;3.70;;;13.40;99.90;;;;;;5037129;28;20037;-70
2021/12/31 03:13:39;;;;;;;16.95;4.07;;;13.40;99.90;;;;;;5037785;28;20045;-71
2021/12/31 03:16:06;;;;;;;11.07;3.92;;;13.40;99.90;;;;;;5037027;28;20044;-70
2021/12/31 03:18:32;;;;;;;11.32;4.47;;;13.40;99.90;;;;;;5034720;28;20045;-70
2021/12/31 03:21:01;;;;;;;9.98;3.90;;;13.40;99.90;;;;;;5034733;28;20083;-70
2021/12/31 03:23:30;;;;;;;15.57;4.25;;;13.40;99.90;;;;;;5016858;28;20041;-70
2021/12/31 03:25:56;;;;;;;10.02;3.97;;;13.40;99.90;;;;;;5034208;28;20028;-70
2021/12/31 03:28:23;;;;;;;11.77;4.30;;;13.40;99.90;;;;;;5034604;28;20026;-72
2021/12/31 03:30:48;;;;;;;13.77;4.90;;;13.40;99.90;;;;;;5035200;28;20155;-72
2021/12/31 03:33:15;;;;;;;9.57;3.90;;;13.40;99.90;;;;;;5034888;28;20488;-71
2021/12/31 03:35:40;;;;;;;9.48;4.15;;;13.40;99.90;;;;;;5016843;28;20030;-70
2021/12/31 03:38:06;;;;;;;12.13;4.55;;;13.40;99.90;;;;;;5035164;28;20029;-70
2021/12/31 03:40:32;;;;;;;10.15;3.88;;;13.40;99.90;;;;;;5017650;28;20463;-70
2021/12/31 03:42:58;;;;;;;10.68;3.67;;;13.40;99.90;;;;;;5035320;28;20029;-73
2021/12/31 03:45:24;;;;;;;12.32;3.80;;;13.50;99.90;;;;;;5035889;28;20422;-70
2021/12/31 03:47:49;;;;;;;10.73;4.75;;;13.50;99.90;;;;;;5037818;28;20140;-70
2021/12/31 03:50:14;;;;;;;7.78;4.05;;;13.50;99.90;;;;;;5037793;28;20018;-70
2021/12/31 03:52:40;;;;;;;12.40;4.28;;;13.50;99.90;;;;;;5021020;28;20045;-70
2021/12/31 03:55:08;;;;;;;12.85;3.63;;;13.60;99.90;;;;;;5038899;28;20471;-70
2021/12/31 03:57:34;;;;;;;11.70;4.18;;;13.50;99.90;;;;;;5038686;28;20025;-70
2021/12/31 04:00:00;;;;;;;15.40;4.30;;;13.60;99.90;;;;;;5039668;28;20030;-70
2021/12/31 04:02:26;;;;;;;10.98;4.28;;;13.50;99.90;;;;;;5041520;28;20132;-70
2021/12/31 04:04:51;;;;;;;10.60;4.20;;;13.50;99.90;;;;;;5040022;28;20060;-70
2021/12/31 04:07:17;;;;;;;10.80;4.10;;;13.50;99.90;;;;;;5039842;28;20029;-70
2021/12/31 04:09:42;;;;;;;9.93;4.82;;;13.50;99.90;;;;;;5023519;28;20021;-70
2021/12/31 04:12:08;;;;;;;11.00;4.13;;;13.50;99.90;;;;;;5042456;28;20033;-71
2021/12/31 04:14:34;;;;;;;11.13;4.82;;;13.50;99.90;;;;;;5025519;28;20024;-71
2021/12/31 04:16:59;;;;;;;7.45;4.28;;;13.50;99.90;;;;;;5041748;28;20049;-71
2021/12/31 04:19:25;;;;;;;12.23;4.88;;;13.50;99.90;;;;;;5037857;28;20017;-70
2021/12/31 04:21:50;;;;;;;8.00;5.18;;;13.50;99.90;;;;;;5037789;28;20084;-70
2021/12/31 04:24:29;;;;;;;10.80;4.95;;;13.50;99.90;;;;;;5037724;28;20105;-70
2021/12/31 04:26:55;;;;;;;10.43;4.65;;;13.50;99.90;;;;;;5037790;28;20029;-70
2021/12/31 04:29:21;;;;;;;14.23;5.07;;;13.50;99.90;;;;;;5019590;28;20047;-71
2021/12/31 04:31:46;;;;;;;16.10;6.65;;;13.50;99.90;;;;;;5019460;28;20026;-70
2021/12/31 04:34:12;;;;;;;9.02;5.40;;;13.50;99.90;;;;;;5037315;28;20076;-71
2021/12/31 04:36:37;;;;;;;18.05;5.97;;;13.50;99.90;;;;;;5037612;28;20080;-70
2021/12/31 04:39:03;;;;;;;15.55;5.78;;;13.50;99.90;;;;;;5019979;28;20025;-70
2021/12/31 04:41:28;;;;;;;11.93;6.22;;;13.50;99.90;;;;;;5036977;28;20108;-70
2021/12/31 04:43:54;;;;;;;13.70;7.40;;;13.40;99.90;;;;;;5036801;28;20033;-71
2021/12/31 04:46:19;;;;;;;16.42;7.13;;;13.40;99.90;;;;;;5037205;28;20034;-70
2021/12/31 04:48:45;;;;;;;14.30;7.30;;;13.40;99.90;;;;;;5037750;28;20048;-69
2021/12/31 04:51:10;;;;;;;13.30;7.55;;;13.40;99.90;;;;;;5036971;28;20033;-70
2021/12/31 04:53:36;;;;;;;9.95;7.50;;;13.40;99.90;;;;;;5019344;28;20033;-68
2021/12/31 04:56:02;;;;;;;14.13;7.85;;;13.40;99.90;;;;;;5038159;28;20044;-69
2021/12/31 04:58:27;;;;;;;10.45;7.75;;;13.40;99.90;;;;;;5037662;28;20021;-72
2021/12/31 05:00:53;;;;;;;14.73;8.18;;;13.40;99.90;;;;;;5036562;28;20036;-70
2021/12/31 05:03:19;;;;;;;14.63;7.95;;;13.30;99.90;;;;;;5037225;28;20053;-68
2021/12/31 05:05:46;;;;;;;17.15;9.52;;;13.40;99.90;;;;;;5037929;28;20022;-69
2021/12/31 05:08:11;;;;;;;15.48;9.05;;;13.40;99.90;;;;;;5037846;28;20025;-69
2021/12/31 05:10:37;;;;;;;16.98;8.77;;;13.40;99.90;;;;;;5038139;28;20037;-70
2021/12/31 05:13:04;;;;;;;16.13;8.40;;;13.40;99.90;;;;;;5038629;28;20037;-69
2021/12/31 05:15:34;;;;;;;13.68;8.45;;;13.40;99.90;;;;;;5038391;28;20029;-68
2021/12/31 05:18:00;;;;;;;16.30;9.07;;;13.30;99.90;;;;;;5021356;28;20448;-70
2021/12/31 05:20:26;;;;;;;16.00;9.00;;;13.30;99.90;;;;;;5039319;28;20091;-68
2021/12/31 05:22:52;;;;;;;11.35;8.48;;;13.40;99.90;;;;;;5039828;28;20026;-69
2021/12/31 05:25:18;;;;;;;13.70;8.48;;;13.40;99.90;;;;;;5042269;28;20120;-69
2021/12/31 05:27:44;;;;;;;11.27;7.82;;;13.40;99.90;;;;;;5043046;28;20080;-70
2021/12/31 05:30:10;;;;;;;16.70;8.30;;;13.40;99.90;;;;;;5024404;28;20029;-69
2021/12/31 05:32:35;;;;;;;11.80;8.63;;;13.40;99.90;;;;;;5038939;28;20034;-69
2021/12/31 05:35:01;;;;;;;13.27;8.27;;;13.50;99.90;;;;;;5038866;28;20022;-69
2021/12/31 05:37:26;;;;;;;9.90;7.43;;;13.50;99.90;;;;;;5038992;28;20072;-70
2021/12/31 05:39:52;;;;;;;9.35;7.30;;;13.50;99.90;;;;;;5036722;28;20033;-70
2021/12/31 05:42:17;;;;;;;13.05;7.30;;;13.50;99.90;;;;;;5038435;28;20032;-70
2021/12/31 05:44:44;;;;;;;11.73;7.78;;;13.50;99.90;;;;;;5038261;28;20057;-69
2021/12/31 05:47:10;;;;;;;11.90;7.82;;;13.60;99.90;;;;;;5037671;28;20394;-69
2021/12/31 05:49:36;;;;;;;13.32;7.53;;;13.60;99.90;;;;;;5041970;28;20040;-70
2021/12/31 05:52:02;;;;;;;9.85;6.82;;;13.60;99.90;;;;;;5020727;28;20029;-70
2021/12/31 05:54:27;;;;;;;9.07;6.57;;;13.60;99.90;;;;;;5036884;28;20116;-70
2021/12/31 05:56:53;;;;;;;8.98;6.80;;;13.70;99.90;;;;;;5036530;28;20057;-70
2021/12/31 05:59:18;;;;;;;10.85;6.43;;;13.60;99.90;;;;;;5036050;28;20045;-70
2021/12/31 06:01:44;;;;;;;11.93;6.47;;;13.60;99.90;;;;;;5036664;28;20029;-70
2021/12/31 06:04:09;;;;;;;9.82;6.20;;;13.70;99.90;;;;;;5036444;28;20034;-74
2021/12/31 06:06:35;;;;;;;9.23;6.30;;;13.70;99.90;;;;;;5036402;28;20406;-70
2021/12/31 06:09:00;;;;;;;11.75;6.80;;;13.70;99.90;;;;;;5035712;28;20065;-70
2021/12/31 06:11:27;;;;;;;11.10;5.80;;;13.70;99.90;;;;;;5034947;28;20493;-70
2021/12/31 06:14:01;;;;;;;11.13;6.43;;;13.70;99.90;;;;;;5035242;28;20134;-70
2021/12/31 06:16:27;;;;;;;9.77;6.78;;;13.70;99.90;;;;;;5036551;28;20082;-71
2021/12/31 06:18:53;;;;;;;11.07;6.25;;;13.70;99.90;;;;;;5039239;28;20037;-72
2021/12/31 06:21:19;;;;;;;8.57;6.00;;;13.70;99.90;;;;;;5035819;28;20036;-70
2021/12/31 06:23:44;;;;;;;9.30;6.03;;;13.70;99.90;;;;;;5035600;28;20025;-70
2021/12/31 06:26:10;;;;;;;8.15;6.20;;;13.70;99.90;;;;;;5036432;28;20107;-70
2021/12/31 06:28:36;;;;;;;9.60;6.28;;;13.70;99.90;;;;;;5035758;28;20027;-69
2021/12/31 06:31:01;;;;;;;8.75;6.65;;;13.70;99.90;;;;;;5035787;28;20113;-70
2021/12/31 06:33:27;;;;;;;11.35;6.40;;;13.70;99.90;;;;;;5036284;28;20022;-70
2021/12/31 06:35:52;;;;;;;10.10;6.82;;;13.70;99.90;;;;;;5036021;28;20082;-70
2021/12/31 06:38:18;;;;;;;9.35;6.93;;;13.70;99.90;;;;;;5035270;28;20075;-70
2021/12/31 06:40:44;;;;;;;8.25;6.18;;;13.70;99.90;;;;;;5017023;28;20025;-68
2021/12/31 06:43:09;;;;;;;10.05;6.25;;;13.80;99.90;;;;;;5034902;28;20063;-70
2021/12/31 06:45:35;;;;;;;9.68;6.38;;;13.70;99.90;;;;;;5036431;28;20080;-70
2021/12/31 06:48:01;;;;;;;9.07;5.32;;;13.70;99.90;;;;;;5036726;28;20101;-70
2021/12/31 06:50:27;;;;;;;6.93;6.22;;;13.70;99.90;;;;;;5035159;28;20029;-69
2021/12/31 06:52:52;;;;;;;7.07;5.68;;;13.70;99.90;;;;;;5034461;28;20025;-71
2021/12/31 06:55:18;;;;;;;7.00;5.50;;;13.70;99.90;;;;;;5034827;28;20087;-69
2021/12/31 06:57:46;;;;;;;9.88;4.80;;;13.80;99.90;;;;;;5034466;28;20033;-70
2021/12/31 07:00:12;;;;;;;8.88;5.03;;;13.70;99.90;;;;;;5034895;28;20021;-70
2021/12/31 07:02:37;;;;;;;6.50;4.88;;;13.80;99.90;;;;;;5034166;28;20402;-70
2021/12/31 07:05:03;;;;;;;7.82;5.03;;;13.80;99.90;;;;;;5034440;28;20021;-73
2021/12/31 07:07:29;;;;;;;11.00;4.72;;;13.80;99.90;;;;;;5034827;28;20060;-71
2021/12/31 07:09:54;;;;;;;10.80;4.53;;;13.80;99.90;;;;;;5034722;28;20028;-69
2021/12/31 07:12:20;;;;;;;7.57;4.70;;;13.90;99.90;;;;;;5017140;28;20040;-70
2021/12/31 07:14:45;;;;;;;6.20;4.07;;;13.90;99.90;;;;;;5034112;28;20035;-70
2021/12/31 07:17:11;;;;;;;14.48;4.60;;;13.80;99.90;;;;;;5034672;28;20013;-69
2021/12/31 07:19:36;;;;;;;9.27;4.57;;;13.80;99.90;;;;;;5034420;28;20056;-69
2021/12/31 07:22:02;;;;;;;8.05;4.68;;;13.80;99.90;;;;;;5034686;28;20052;-68
2021/12/31 07:24:28;;;;;;;7.07;4.82;;;13.80;99.90;;;;;;5035079;28;20056;-68
2021/12/31 07:26:53;;;;;;;7.53;4.95;;;13.80;99.90;;;;;;5036776;28;20017;-68
2021/12/31 07:29:19;;;;;;;7.30;4.63;;;13.70;99.90;;;;;;5036976;28;20029;-68
2021/12/31 07:31:44;;;;;;;7.82;4.45;;;13.70;99.90;;;;;;5037128;28;20463;-68
2021/12/31 07:34:10;;;;;;;8.40;4.53;;;13.70;99.90;;;;;;5018885;28;20013;-68
2021/12/31 07:36:35;;;;;;;5.30;4.20;;;13.70;99.90;;;;;;5037183;28;20021;-68
2021/12/31 07:39:07;;;;;;;9.18;4.70;;;13.70;99.90;;;;;;5037599;28;20029;-68
2021/12/31 07:41:33;;;;;;;11.05;4.47;;;13.70;99.90;;;;;;5038392;28;20033;-68
2021/12/31 07:43:59;;;;;;;6.30;4.47;;;13.70;99.90;;;;;;5037365;28;20122;-68
2021/12/31 07:46:24;;;;;;;10.57;4.47;;;13.70;99.90;;;;;;5037164;28;20025;-67
2021/12/31 07:48:50;;;;;;;8.88;5.10;;;13.70;99.90;;;;;;5036910;28;20064;-68
2021/12/31 07:51:16;;;;;;;11.30;4.95;;;13.60;99.90;;;;;;5037044;28;20467;-68
2021/12/31 07:53:42;;;;;;;8.98;4.43;;;13.60;99.90;;;;;;5036776;28;20510;-68
2021/12/31 07:56:07;;;;;;;13.55;4.38;;;13.60;99.90;;;;;;5037343;28;20026;-68
2021/12/31 07:58:33;;;;;;;6.07;3.95;;;13.60;99.90;;;;;;5037285;28;20101;-67
2021/12/31 08:00:58;;;;;;;7.85;3.72;;;13.60;99.90;;;;;;5039457;28;20083;-68
2021/12/31 08:03:24;;;;;;;5.70;3.47;;;13.60;99.90;;;;;;5039092;28;20367;-68
2021/12/31 08:05:50;;;;;;;8.43;3.67;;;13.60;99.90;;;;;;5041588;28;20123;-68
2021/12/31 08:08:15;;;;;;;13.02;4.03;;;13.60;99.90;;;;;;5026157;28;20036;-68
2021/12/31 08:10:41;;;;;;;6.70;4.00;;;13.70;99.90;;;;;;5048427;28;20044;-68
2021/12/31 08:13:06;;;;;;;8.75;3.38;;;13.60;99.90;;;;;;5052331;28;20049;-68
2021/12/31 08:15:32;;;;;;;5.90;3.67;;;13.60;99.90;;;;;;5036825;28;20029;-68
2021/12/31 08:17:58;;;;;;;9.63;4.22;;;13.60;99.90;;;;;;5046963;28;20051;-70
2021/12/31 08:20:24;;;;;;;5.70;3.30;;;13.60;99.90;;;;;;5061694;28;20021;-67
2021/12/31 08:22:51;;;;;;;8.02;3.90;;;13.60;99.90;;;;;;5050140;28;20040;-69
2021/12/31 08:25:17;;;;;;;6.55;3.53;;;13.60;99.90;;;;;;5046740;28;20455;-68
2021/12/31 08:27:43;;;;;;;6.07;4.13;;;13.60;99.90;;;;;;5050525;28;20032;-68
2021/12/31 08:30:10;;;;;;;9.23;4.07;;;13.70;99.90;;;;;;5039422;28;20033;-70
2021/12/31 08:32:36;;;;;;;9.30;4.30;;;13.70;99.90;;;;;;5053997;28;20505;-68
2021/12/31 08:35:02;;;;;;;9.85;4.40;;;13.70;99.90;;;;;;5042705;28;20034;-68
2021/12/31 08:37:27;;;;;;;8.07;4.68;;;13.70;99.90;;;;;;5050144;28;20454;-68
2021/12/31 08:39:53;;;;;;;9.75;4.47;;;13.80;99.90;;;;;;5026997;28;20021;-68
2021/12/31 08:42:18;;;;;;;6.18;4.18;;;13.80;99.90;;;;;;5043345;28;20040;-67
2021/12/31 08:44:44;;;;;;;10.73;4.47;;;13.70;99.90;;;;;;5051734;28;20021;-68
2021/12/31 08:47:09;;;;;;;6.00;4.10;;;13.80;99.90;;;;;;5039388;28;20025;-68
2021/12/31 08:49:35;;;;;;;8.55;4.45;;;13.80;99.90;;;;;;5049864;28;20037;-68
2021/12/31 08:52:01;;;;;;;7.72;4.68;;;13.80;99.90;;;;;;5048544;28;20073;-66
2021/12/31 08:54:29;;;;;;;7.53;4.22;;;13.80;99.90;;;;;;5027991;28;20542;-67
2021/12/31 08:56:58;;;;;;;9.27;4.43;;;13.80;99.90;;;;;;5041739;28;20099;-68
2021/12/31 08:59:24;;;;;;;13.50;4.28;;;13.80;99.90;;;;;;5039560;28;20021;-67
2021/12/31 09:01:49;;;;;;;11.38;4.47;;;13.80;99.90;;;;;;5041888;28;20032;-68
2021/12/31 09:04:15;;;;;;;5.82;3.75;;;13.80;99.90;;;;;;5045524;28;20432;-68
2021/12/31 09:06:40;;;;;;;8.75;4.10;;;13.90;99.90;;;;;;5048501;28;20025;-68
2021/12/31 09:09:06;;;;;;;6.75;3.92;;;13.80;99.90;;;;;;5037947;28;20057;-68
2021/12/31 09:11:31;;;;;;;5.78;3.55;;;13.80;99.90;;;;;;5022175;28;20032;-68
2021/12/31 09:13:58;;;;;;;8.45;3.97;;;13.80;99.90;;;;;;5048457;28;20014;-68
2021/12/31 09:16:23;;;;;;;9.27;4.15;;;13.90;99.90;;;;;;5046897;28;20095;-68
2021/12/31 09:18:49;;;;;;;5.50;4.05;;;13.90;99.90;;;;;;5042045;28;20593;-68
2021/12/31 09:21:20;;;;;;;7.93;4.30;;;13.90;99.90;;;;;;5035683;28;20112;-68
2021/12/31 09:23:46;;;;;;;7.72;4.15;;;13.90;99.90;;;;;;5044813;28;20104;-68
2021/12/31 09:26:12;;;;;;;5.80;4.40;;;13.90;99.90;;;;;;5056141;28;20170;-68
2021/12/31 09:28:38;;;;;;;8.90;4.15;;;13.90;99.90;;;;;;5044960;28;20026;-69
2021/12/31 09:31:05;;;;;;;6.38;3.83;;;13.90;99.90;;;;;;5040873;28;20025;-68
2021/12/31 09:33:31;;;;;;;5.90;3.67;;;13.90;99.90;;;;;;5053595;28;20025;-69
2021/12/31 09:35:57;;;;;;;8.10;4.38;;;13.90;99.90;;;;;;5025868;28;20020;-69
2021/12/31 09:38:22;;;;;;;8.82;4.75;;;13.90;99.90;;;;;;5045618;28;20041;-69
2021/12/31 09:40:48;;;;;;;6.38;4.22;;;14.00;99.90;;;;;;5035818;28;20095;-68
2021/12/31 09:43:14;;;;;;;6.32;4.10;;;14.00;99.90;;;;;;5017761;28;20321;-68
2021/12/31 09:45:42;;;;;;;8.75;4.30;;;14.00;99.90;;;;;;5017131;28;20052;-68
2021/12/31 09:48:13;;;;;;;8.18;3.97;;;14.00;99.90;;;;;;5034251;28;20075;-68
2021/12/31 09:50:41;;;;;;;7.47;4.15;;;14.00;99.90;;;;;;5034021;28;20018;-68
2021/12/31 09:53:08;;;;;;;9.88;4.50;;;14.00;99.90;;;;;;5016674;28;20038;-68
2021/12/31 09:55:38;;;;;;;6.43;3.80;;;14.00;99.90;;;;;;5034590;28;20364;-66
2021/12/31 09:58:05;;;;;;;8.07;3.85;;;14.00;99.90;;;;;;5035054;28;20056;-68
2021/12/31 10:00:31;;;;;;;7.10;3.65;;;14.10;99.90;;;;;;5035061;28;20037;-67
2021/12/31 10:03:14;;;;;;;5.65;4.00;;;14.10;99.90;;;;;;5034392;28;20022;-68
2021/12/31 10:05:43;;;;;;;7.60;3.83;;;14.00;99.90;;;;;;5034688;28;20115;-69
2021/12/31 10:08:19;;;;;;;6.55;3.92;;;14.00;99.90;;;;;;5090804;28;20518;-59
2021/12/31 10:11:19;;;;;;;9.50;4.00;;;14.00;99.90;;;;;;5090636;28;20052;-58
2021/12/31 10:13:55;;;;;;;5.32;3.90;;;14.00;99.90;;;;;;5070316;28;20029;-59
2021/12/31 10:16:30;;;;;;;9.07;3.90;;;14.10;99.90;;;;;;5070323;28;20114;-58
2021/12/31 10:19:12;;;;;;;5.68;4.00;;;14.00;99.90;;;;;;5069828;28;20021;-58
2021/12/31 10:21:43;;;;;;;8.65;4.05;;;14.10;99.90;;;;;;5069625;28;20151;-54
2021/12/31 10:24:32;;;;;;;7.70;3.35;;;14.20;99.90;;;;;;5069749;28;20029;-53
2021/12/31 10:27:01;;;;;;;5.93;3.92;;;14.20;99.90;;;;;;5069807;28;20036;-54
2021/12/31 10:29:27;;;;;;;8.05;3.45;;;14.30;99.90;;;;;;5069447;28;20027;-52
2021/12/31 10:31:54;;;;;;;10.45;3.97;;;14.30;99.90;;;;;;5074065;28;20032;-53
2021/12/31 10:34:26;;;;;;;5.82;3.80;;;14.30;99.90;;;;;;5074321;28;20029;-53
2021/12/31 10:36:51;;;;;;;6.85;4.05;;;14.30;99.90;;;;;;5071553;28;20017;-53
2021/12/31 10:39:19;;;;;;;8.35;4.15;;;14.30;99.90;;;;;;5071603;28;20102;-55
2021/12/31 10:42:01;;;;;;;8.45;4.00;;;14.30;99.90;;;;;;5070051;28;20060;-53
2021/12/31 10:45:03;;;;;;;4.32;3.72;;;14.20;99.90;;;;;;5069921;28;20437;-55
2021/12/31 10:47:42;;;;;;;7.80;4.43;;;14.20;99.90;;;;;;5027784;28;20029;-54
2021/12/31 10:50:13;;;;;;;9.07;4.90;;;14.10;99.90;;;;;;5064660;28;20115;-56
2021/12/31 10:57:46;;;;;;;6.65;3.70;;;14.10;99.90;;;;;;5065584;22;20390;-53
2021/12/31 11:00:13;;;;;;;8.88;3.70;;;14.20;99.90;;;;;;5048831;28;20096;-51
2021/12/31 11:02:39;;;;;;;9.70;3.85;;;14.10;99.90;;;;;;5048379;28;20029;-54
2021/12/31 11:05:06;;;;;;;9.13;4.03;;;14.10;99.90;;;;;;5048608;28;20094;-50
2021/12/31 11:07:34;;;;;;;8.10;3.65;;;14.20;99.90;;;;;;5048287;28;20467;-51
2021/12/31 11:10:01;;;;;;;4.68;3.25;;;14.20;99.90;;;;;;5048499;28;20021;-50
2021/12/31 11:12:27;;;;;;;6.07;3.63;;;14.20;99.90;;;;;;5048490;28;20064;-50
2021/12/31 11:14:54;;;;;;;7.35;3.78;;;14.10;99.90;;;;;;5048377;28;20375;-49
2021/12/31 11:17:21;;;;;;;9.20;3.67;;;14.20;99.90;;;;;;5048554;28;20063;-49
2021/12/31 11:19:49;;;;;;;6.32;3.47;;;14.10;99.90;;;;;;5034319;28;20393;-53
2021/12/31 11:22:16;;;;;;;5.70;3.85;;;14.10;99.90;;;;;;5034899;28;20025;-50
2021/12/31 11:24:43;;;;;;;7.50;3.90;;;14.10;99.90;;;;;;5035166;28;20104;-50
2021/12/31 11:27:28;;;;;;;7.47;3.75;;;14.10;99.90;;;;;;5035063;28;20037;-51
2021/12/31 11:29:54;;;;;;;7.25;4.38;;;14.00;99.90;;;;;;5034332;28;20077;-51
2021/12/31 11:32:45;;;;;;;6.60;3.47;;;14.10;99.90;;;;;;5034643;28;20026;-53
2021/12/31 11:35:27;;;;;;;;;;;14.10;99.90;;;;;;5035290;28;20028;-50
2021/12/31 11:37:53;;;;;;;9.30;3.60;;;14.00;99.90;;;;;;5035804;28;20342;-52
2021/12/31 11:40:35;;;;;;;5.20;3.38;;;14.00;99.90;;;;;;5036258;28;20021;-56
2021/12/31 11:43:12;;;;;;;6.70;3.40;;;14.00;99.90;;;;;;5034671;28;20014;-54
2021/12/31 11:45:38;;;;;;;6.80;3.40;;;14.00;99.90;;;;;;5034959;28;20549;-51
2021/12/31 11:48:42;;;;;;;6.15;3.50;;;14.00;99.90;;;;;;5034852;28;20163;-50
2021/12/31 11:51:08;;;;;;;5.63;3.53;;;14.00;99.90;;;;;;5034386;28;20026;-50
2021/12/31 11:54:00;;;;;;;8.00;3.22;;;14.00;99.90;;;;;;5034499;28;20078;-50
2021/12/31 11:56:43;;;;;;;;;;;13.90;99.90;;;;;;5034669;28;20108;-51
2021/12/31 11:59:12;;;;;;;6.75;3.78;;;13.90;99.90;;;;;;5034511;28;19912;-49
2021/12/31 12:01:37;;;;;;;6.50;3.40;;;13.90;99.90;;;;;;5033954;28;20036;-52
2021/12/31 12:04:27;;;;;;;8.32;3.13;;;13.90;99.90;;;;;;5034543;28;20025;-53
2021/12/31 12:06:56;;;;;;;5.88;3.10;;;14.00;99.90;;;;;;5034041;28;20556;-54
2021/12/31 12:09:23;;;;;;;5.40;3.10;;;14.00;99.90;;;;;;5034425;28;20049;-54
2021/12/31 12:12:28;;;;;;;5.28;3.20;;;14.00;99.90;;;;;;5034091;28;20033;-54
2021/12/31 12:14:55;;;;;;;9.43;3.53;;;14.10;99.90;;;;;;5033805;28;20494;-52
2021/12/31 12:17:30;;;;;;;8.07;3.50;;;14.10;99.90;;;;;;5033808;28;20041;-53
2021/12/31 12:20:02;;;;;;;7.80;3.80;;;14.10;99.90;;;;;;5034078;28;20037;-55
2021/12/31 12:22:34;;;;;;;8.73;4.53;;;14.10;99.90;;;;;;5034048;28;20025;-51
2021/12/31 12:25:16;;;;;;;5.30;3.78;;;14.10;99.90;;;;;;5033828;28;20034;-51
2021/12/31 12:27:43;;;;;;;6.28;3.95;;;14.10;99.90;;;;;;5033897;28;20033;-50
2021/12/31 12:30:10;;;;;;;8.82;4.60;;;14.10;99.90;;;;;;5032729;28;20071;-55
2021/12/31 12:32:40;;;;;;;8.52;4.13;;;14.10;99.90;;;;;;5033493;28;20029;-52
2021/12/31 12:35:18;;;;;;;7.55;4.00;;;14.10;99.90;;;;;;5032813;28;20127;-53
2021/12/31 12:37:54;;;;;;;7.93;4.18;;;14.10;99.90;;;;;;5032276;28;20021;-56
2021/12/31 12:40:19;;;;;;;7.90;3.53;;;14.10;99.90;;;;;;5033590;28;20030;-52
2021/12/31 12:42:45;;;;;;;6.45;3.95;;;14.20;99.90;;;;;;5033238;28;20048;-51
2021/12/31 12:45:11;;;;;;;8.95;4.10;;;14.20;99.90;;;;;;5033244;28;20033;-53
2021/12/31 12:47:37;;;;;;;6.10;3.55;;;14.20;99.90;;;;;;5033417;28;20025;-48
2021/12/31 12:50:08;;;;;;;10.60;5.07;;;14.20;99.90;;;;;;5034079;28;20101;-50
2021/12/31 12:52:34;;;;;;;8.77;4.30;;;14.20;99.90;;;;;;5033567;28;20029;-49
2021/12/31 12:55:10;;;;;;;6.90;2.97;;;14.20;99.90;;;;;;5033604;28;20036;-51
2021/12/31 12:57:36;;;;;;;6.82;3.45;;;14.20;99.90;;;;;;5033154;28;20065;-53